Time;durP1;ratioP1;P1;durP2;ratioP2;P2;SDS_P1;SDS_P2;PMS_P1;PMS_P2;Temp;Humidity;BMP_temperature;BMP_pressure;BME280_temperature;BME280_humidity;BME280_pressure;Samples;Min_cycle;Max_cycle;Signal;HPM_P1;HPM_P2
2022/09/23 00:02:11;;;;;;;4.70;3.60;;;;;;;;;;5093994;28;20229;-76
2022/09/23 00:04:40;;;;;;;5.90;3.20;;;;;;;;;;5084572;28;20713;-76
2022/09/23 00:07:08;;;;;;;3.43;3.13;;;;;;;;;;5075717;28;20297;-75
2022/09/23 00:09:37;;;;;;;4.30;3.40;;;;;;;;;;5099182;28;20281;-76
2022/09/23 00:12:06;;;;;;;4.03;3.60;;;;;;;;;;5083163;28;20245;-76
2022/09/23 00:14:39;;;;;;;4.70;3.50;;;;;;;;;;5094502;28;20199;-76
2022/09/23 00:17:07;;;;;;;5.40;3.27;;;;;;;;;;5091720;28;20361;-75
2022/09/23 00:19:36;;;;;;;4.10;3.70;;;;;;;;;;5087586;28;20195;-75
2022/09/23 00:22:05;;;;;;;3.73;3.43;;;;;;;;;;5081425;28;20248;-76
2022/09/23 00:24:33;;;;;;;3.70;3.40;;;;;;;;;;5073573;28;20323;-75
2022/09/23 00:27:02;;;;;;;5.77;3.40;;;;;;;;;;5090994;28;20677;-76
2022/09/23 00:29:30;;;;;;;6.00;3.47;;;;;;;;;;5094143;28;20255;-76
2022/09/23 00:32:00;;;;;;;4.20;3.50;;;;;;;;;;5085771;28;20253;-75
2022/09/23 00:34:29;;;;;;;6.20;3.27;;;;;;;;;;5093710;28;20251;-76
2022/09/23 00:36:58;;;;;;;4.03;3.50;;;;;;;;;;5089065;28;20221;-75
2022/09/23 00:39:26;;;;;;;5.00;3.30;;;;;;;;;;5077940;28;20285;-76
2022/09/23 00:41:54;;;;;;;5.03;3.33;;;;;;;;;;5094209;28;20312;-75
2022/09/23 00:44:43;;;;;;;4.70;3.57;;;;;;;;;;5093232;28;20255;-75
2022/09/23 00:47:18;;;;;;;4.00;3.60;;;;;;;;;;5093767;28;20255;-76
2022/09/23 00:49:47;;;;;;;4.60;3.50;;;;;;;;;;5100240;28;20227;-75
2022/09/23 00:52:18;;;;;;;3.47;3.17;;;;;;;;;;5095490;28;20256;-75
2022/09/23 00:54:46;;;;;;;3.87;3.53;;;;;;;;;;5093864;28;20281;-76
2022/09/23 00:57:16;;;;;;;3.77;3.13;;;;;;;;;;5093419;28;20231;-75
2022/09/23 00:59:45;;;;;;;4.70;3.37;;;;;;;;;;5087817;28;20285;-75
2022/09/23 01:02:15;;;;;;;3.73;3.33;;;;;;;;;;5093682;28;20304;-75
2022/09/23 01:04:43;;;;;;;3.43;3.13;;;;;;;;;;5094041;28;20190;-76
2022/09/23 01:07:12;;;;;;;3.30;3.00;;;;;;;;;;5073543;28;20264;-76
2022/09/23 01:09:41;;;;;;;3.53;2.80;;;;;;;;;;5074308;28;20249;-75
2022/09/23 01:12:13;;;;;;;3.17;2.40;;;;;;;;;;5090066;28;20291;-75
2022/09/23 01:14:46;;;;;;;2.90;2.60;;;;;;;;;;5093577;28;20212;-75
2022/09/23 01:17:19;;;;;;;2.80;2.60;;;;;;;;;;5086079;28;20715;-76
2022/09/23 01:19:57;;;;;;;3.30;2.80;;;;;;;;;;5081112;28;20282;-76
2022/09/23 01:22:30;;;;;;;4.07;2.73;;;;;;;;;;5073271;28;20723;-75
2022/09/23 01:25:07;;;;;;;2.70;2.50;;;;;;;;;;5085437;28;20285;-75
2022/09/23 01:27:42;;;;;;;2.50;2.30;;;;;;;;;;5076554;28;20667;-76
2022/09/23 01:30:17;;;;;;;3.67;2.43;;;;;;;;;;5085195;28;20658;-75
2022/09/23 01:32:53;;;;;;;2.63;2.10;;;;;;;;;;5080060;28;20249;-75
2022/09/23 01:35:26;;;;;;;2.40;2.20;;;;;;;;;;5093070;28;20255;-75
2022/09/23 01:37:57;;;;;;;2.40;2.20;;;;;;;;;;5092919;28;20236;-75
2022/09/23 01:40:31;;;;;;;2.80;2.50;;;;;;;;;;5085559;28;20662;-75
2022/09/23 01:43:05;;;;;;;4.73;2.20;;;;;;;;;;5089905;28;20242;-75
2022/09/23 01:45:36;;;;;;;2.27;2.00;;;;;;;;;;5097571;28;20236;-76
2022/09/23 01:48:12;;;;;;;1.93;1.80;;;;;;;;;;5096884;28;20230;-75
2022/09/23 01:50:58;;;;;;;2.93;2.30;;;;;;;;;;5097128;28;20197;-75
2022/09/23 01:53:31;;;;;;;2.33;1.97;;;;;;;;;;5096038;28;20240;-75
2022/09/23 01:56:03;;;;;;;2.77;2.00;;;;;;;;;;5096874;28;20705;-76
2022/09/23 01:58:35;;;;;;;2.47;1.80;;;;;;;;;;5091562;28;20198;-75
2022/09/23 02:01:05;;;;;;;3.80;2.20;;;;;;;;;;5098549;28;20201;-76
2022/09/23 02:03:39;;;;;;;2.37;1.80;;;;;;;;;;5097056;28;20237;-75
2022/09/23 02:06:11;;;;;;;2.57;2.03;;;;;;;;;;5097326;28;20213;-76
2022/09/23 02:08:44;;;;;;;2.10;1.90;;;;;;;;;;5090560;28;20679;-75
2022/09/23 02:11:14;;;;;;;2.07;1.90;;;;;;;;;;5082999;28;20241;-75
2022/09/23 02:13:45;;;;;;;1.97;1.80;;;;;;;;;;5089236;28;20328;-75
2022/09/23 02:16:16;;;;;;;3.40;2.20;;;;;;;;;;5076594;28;20214;-76
2022/09/23 02:18:48;;;;;;;2.37;2.17;;;;;;;;;;5096687;28;20288;-75
2022/09/23 02:21:18;;;;;;;2.47;2.10;;;;;;;;;;5100315;28;20626;-75
2022/09/23 02:23:50;;;;;;;2.30;2.07;;;;;;;;;;5076542;28;20309;-75
2022/09/23 02:26:21;;;;;;;2.90;1.80;;;;;;;;;;5077002;28;20278;-75
2022/09/23 02:28:52;;;;;;;2.53;2.00;;;;;;;;;;5092350;28;20194;-75
2022/09/23 02:31:26;;;;;;;2.43;1.90;;;;;;;;;;5077216;28;20598;-75
2022/09/23 02:34:00;;;;;;;2.80;1.97;;;;;;;;;;5094163;28;20225;-76
2022/09/23 02:36:31;;;;;;;2.80;2.00;;;;;;;;;;5095318;28;20313;-76
2022/09/23 02:39:02;;;;;;;1.93;1.83;;;;;;;;;;5096715;28;20576;-77
2022/09/23 02:41:32;;;;;;;2.40;2.00;;;;;;;;;;5095232;28;20233;-75
2022/09/23 02:44:13;;;;;;;3.20;2.00;;;;;;;;;;5101424;28;20285;-75
2022/09/23 02:46:53;;;;;;;2.20;2.00;;;;;;;;;;5078816;28;20289;-75
2022/09/23 02:49:37;;;;;;;2.00;1.80;;;;;;;;;;5084504;28;20237;-75
2022/09/23 02:52:17;;;;;;;2.23;1.97;;;;;;;;;;5092505;28;20590;-75
2022/09/23 02:54:46;;;;;;;3.57;1.63;;;;;;;;;;5094895;28;20223;-76
2022/09/23 02:57:15;;;;;;;2.93;1.83;;;;;;;;;;5100911;28;20209;-75
2022/09/23 02:59:44;;;;;;;2.10;1.90;;;;;;;;;;5094342;28;20240;-75
2022/09/23 03:02:16;;;;;;;1.83;1.70;;;;;;;;;;5095855;28;20713;-75
2022/09/23 03:04:51;;;;;;;3.10;1.70;;;;;;;;;;5095408;28;20201;-75
2022/09/23 03:07:20;;;;;;;2.00;1.80;;;;;;;;;;5089004;28;20711;-75
2022/09/23 03:09:53;;;;;;;3.27;2.00;;;;;;;;;;5081122;28;20285;-76
2022/09/23 03:12:34;;;;;;;1.87;1.77;;;;;;;;;;5078865;28;20226;-75
2022/09/23 03:15:09;;;;;;;2.43;1.90;;;;;;;;;;5095681;28;20296;-75
2022/09/23 03:17:40;;;;;;;2.10;2.00;;;;;;;;;;5086603;28;20261;-75
2022/09/23 03:20:12;;;;;;;3.40;2.03;;;;;;;;;;5085749;28;20237;-76
2022/09/23 03:22:42;;;;;;;2.13;1.77;;;;;;;;;;5095560;28;20265;-76
2022/09/23 03:25:14;;;;;;;3.77;1.90;;;;;;;;;;5095920;28;20291;-76
2022/09/23 03:27:44;;;;;;;2.20;2.00;;;;;;;;;;5085812;28;20687;-75
2022/09/23 03:30:13;;;;;;;2.67;2.30;;;;;;;;;;5083276;28;20198;-75
2022/09/23 03:32:43;;;;;;;3.73;1.97;;;;;;;;;;5094572;28;20270;-76
2022/09/23 03:35:14;;;;;;;2.23;2.03;;;;;;;;;;5094060;28;20297;-75
2022/09/23 03:37:45;;;;;;;2.50;2.10;;;;;;;;;;5075272;28;20233;-75
2022/09/23 03:40:14;;;;;;;2.10;1.90;;;;;;;;;;5081864;28;20403;-76
2022/09/23 03:42:43;;;;;;;2.40;2.00;;;;;;;;;;5095514;28;20221;-76
2022/09/23 03:45:15;;;;;;;2.10;1.90;;;;;;;;;;5084413;28;20671;-75
2022/09/23 03:47:44;;;;;;;2.10;1.90;;;;;;;;;;5095448;28;20205;-75
2022/09/23 03:50:16;;;;;;;4.20;1.90;;;;;;;;;;5094655;28;20285;-75
2022/09/23 03:52:45;;;;;;;2.00;1.80;;;;;;;;;;5095257;28;20221;-75
2022/09/23 03:55:15;;;;;;;2.53;2.10;;;;;;;;;;5094911;28;20768;-75
2022/09/23 03:57:43;;;;;;;1.97;1.80;;;;;;;;;;5074391;28;20804;-75
2022/09/23 04:00:12;;;;;;;2.30;1.90;;;;;;;;;;5079502;28;20248;-75
2022/09/23 04:02:41;;;;;;;2.57;2.00;;;;;;;;;;5094194;28;20213;-75
2022/09/23 04:05:13;;;;;;;2.10;1.90;;;;;;;;;;5094619;28;20292;-75
2022/09/23 04:07:42;;;;;;;2.17;1.97;;;;;;;;;;5084034;28;20304;-75
2022/09/23 04:10:11;;;;;;;3.03;1.90;;;;;;;;;;5081315;28;20300;-76
2022/09/23 04:12:39;;;;;;;2.30;1.60;;;;;;;;;;5092895;28;20249;-75
2022/09/23 04:15:08;;;;;;;2.27;1.77;;;;;;;;;;5102527;28;20236;-75
2022/09/23 04:17:36;;;;;;;2.13;1.93;;;;;;;;;;5093916;28;20243;-75
2022/09/23 04:20:05;;;;;;;2.20;1.80;;;;;;;;;;5093849;28;20289;-75
2022/09/23 04:22:34;;;;;;;2.40;1.70;;;;;;;;;;5094239;28;20316;-75
2022/09/23 04:25:04;;;;;;;2.30;2.00;;;;;;;;;;5093822;28;20237;-75
2022/09/23 04:27:32;;;;;;;2.97;1.80;;;;;;;;;;5092367;28;20713;-76
2022/09/23 04:30:05;;;;;;;3.53;1.90;;;;;;;;;;5078397;28;20711;-75
2022/09/23 04:32:34;;;;;;;1.80;1.53;;;;;;;;;;5095121;28;20220;-76
2022/09/23 04:35:02;;;;;;;1.60;1.50;;;;;;;;;;5078053;28;20301;-75
2022/09/23 04:37:31;;;;;;;3.13;1.70;;;;;;;;;;5093595;28;20223;-75
2022/09/23 04:39:59;;;;;;;2.73;1.70;;;;;;;;;;5094087;28;20633;-75
2022/09/23 04:42:30;;;;;;;2.50;2.00;;;;;;;;;;5090013;28;20221;-75
2022/09/23 04:44:58;;;;;;;2.30;2.00;;;;;;;;;;5074724;28;20229;-75
2022/09/23 04:47:27;;;;;;;4.07;1.80;;;;;;;;;;5084449;28;20293;-76
2022/09/23 04:49:55;;;;;;;2.87;2.00;;;;;;;;;;5081389;28;20233;-75
2022/09/23 04:52:27;;;;;;;2.57;1.90;;;;;;;;;;5093630;28;20620;-77
2022/09/23 04:54:56;;;;;;;1.80;1.70;;;;;;;;;;5090020;28;20304;-75
2022/09/23 04:57:25;;;;;;;2.53;1.80;;;;;;;;;;5085584;28;20214;-75
2022/09/23 04:59:56;;;;;;;2.20;2.00;;;;;;;;;;5078231;28;20206;-76
2022/09/23 05:02:24;;;;;;;2.97;2.00;;;;;;;;;;5076768;28;20309;-75
2022/09/23 05:04:53;;;;;;;1.97;1.80;;;;;;;;;;5091042;28;20640;-75
2022/09/23 05:07:22;;;;;;;2.90;1.90;;;;;;;;;;5085600;28;20226;-75
2022/09/23 05:09:50;;;;;;;2.00;1.90;;;;;;;;;;5085949;28;20667;-75
2022/09/23 05:12:18;;;;;;;1.90;1.77;;;;;;;;;;5090918;28;20256;-75
2022/09/23 05:14:47;;;;;;;3.53;2.20;;;;;;;;;;5092028;28;20276;-76
2022/09/23 05:17:17;;;;;;;2.47;2.00;;;;;;;;;;5081877;28;20667;-75
2022/09/23 05:19:45;;;;;;;3.20;2.10;;;;;;;;;;5088147;28;20284;-75
2022/09/23 05:22:13;;;;;;;2.97;1.90;;;;;;;;;;5092267;28;20258;-75
2022/09/23 05:24:42;;;;;;;2.40;2.00;;;;;;;;;;5089635;28;20213;-75
2022/09/23 05:27:10;;;;;;;2.70;2.00;;;;;;;;;;5096269;28;20193;-75
2022/09/23 05:29:39;;;;;;;1.93;1.80;;;;;;;;;;5086865;28;20695;-75
2022/09/23 05:32:08;;;;;;;2.20;2.00;;;;;;;;;;5094174;28;20261;-75
2022/09/23 05:34:38;;;;;;;2.53;2.30;;;;;;;;;;5093596;28;20209;-75
2022/09/23 05:37:07;;;;;;;2.80;1.90;;;;;;;;;;5087885;28;20275;-77
2022/09/23 05:39:35;;;;;;;2.23;2.00;;;;;;;;;;5072925;28;20210;-76
2022/09/23 05:42:04;;;;;;;2.10;1.70;;;;;;;;;;5084039;28;20256;-75
2022/09/23 05:44:32;;;;;;;3.07;2.40;;;;;;;;;;5085518;28;20249;-75
2022/09/23 05:47:01;;;;;;;2.23;1.60;;;;;;;;;;5089322;28;21178;-75
2022/09/23 05:49:30;;;;;;;3.93;2.40;;;;;;;;;;5092246;28;20202;-75
2022/09/23 05:52:19;;;;;;;2.20;2.00;;;;;;;;;;5092487;28;20229;-75
2022/09/23 05:54:48;;;;;;;2.20;2.00;;;;;;;;;;5093167;28;20233;-75
2022/09/23 05:57:17;;;;;;;1.80;1.70;;;;;;;;;;5089968;28;20256;-75
2022/09/23 05:59:46;;;;;;;2.20;2.00;;;;;;;;;;5080964;28;20240;-75
2022/09/23 06:02:15;;;;;;;3.33;2.30;;;;;;;;;;5093284;28;20689;-75
2022/09/23 06:04:43;;;;;;;2.23;2.00;;;;;;;;;;5093183;28;20217;-75
2022/09/23 06:07:12;;;;;;;2.17;1.90;;;;;;;;;;5092806;28;20241;-75
2022/09/23 06:09:42;;;;;;;3.67;2.33;;;;;;;;;;5092842;28;20288;-75
2022/09/23 06:12:12;;;;;;;2.40;1.80;;;;;;;;;;5088270;28;20264;-75
2022/09/23 06:14:41;;;;;;;3.93;2.20;;;;;;;;;;5110619;28;20201;-75
2022/09/23 06:17:09;;;;;;;3.23;2.00;;;;;;;;;;5106757;28;20202;-75
2022/09/23 06:19:38;;;;;;;2.77;1.93;;;;;;;;;;5093173;28;20729;-75
2022/09/23 06:22:06;;;;;;;2.53;2.00;;;;;;;;;;5092772;28;20317;-75
2022/09/23 06:24:34;;;;;;;3.37;2.03;;;;;;;;;;5092141;28;20225;-75
2022/09/23 06:27:04;;;;;;;2.80;2.00;;;;;;;;;;5079779;28;20237;-75
2022/09/23 06:29:32;;;;;;;2.80;2.00;;;;;;;;;;5088476;28;20266;-75
2022/09/23 06:32:01;;;;;;;2.97;2.10;;;;;;;;;;5081571;28;20256;-75
2022/09/23 06:34:29;;;;;;;2.10;1.90;;;;;;;;;;5096513;28;20205;-75
2022/09/23 06:37:08;;;;;;;2.90;2.30;;;;;;;;;;5076292;28;20199;-75
2022/09/23 06:39:47;;;;;;;2.70;2.50;;;;;;;;;;5086073;28;20198;-75
2022/09/23 06:42:18;;;;;;;2.53;2.20;;;;;;;;;;5096171;28;20229;-75
2022/09/23 06:44:46;;;;;;;2.87;2.20;;;;;;;;;;5096409;28;20257;-75
2022/09/23 06:47:14;;;;;;;2.30;2.10;;;;;;;;;;5091686;28;20242;-75
2022/09/23 06:49:43;;;;;;;3.00;2.00;;;;;;;;;;5087240;28;20248;-75
2022/09/23 06:52:11;;;;;;;2.80;2.23;;;;;;;;;;5075914;28;20367;-75
2022/09/23 06:54:40;;;;;;;2.17;2.00;;;;;;;;;;5095207;28;20674;-75
2022/09/23 06:57:09;;;;;;;2.47;2.10;;;;;;;;;;5095842;28;20256;-75
2022/09/23 06:59:38;;;;;;;1.90;1.80;;;;;;;;;;5095031;28;20202;-76
2022/09/23 07:02:07;;;;;;;3.20;1.70;;;;;;;;;;5096317;28;20291;-75
2022/09/23 07:04:36;;;;;;;2.37;2.00;;;;;;;;;;5112216;28;20225;-75
2022/09/23 07:07:04;;;;;;;2.00;1.80;;;;;;;;;;5096960;27;20206;-75
2022/09/23 07:09:33;;;;;;;2.90;1.77;;;;;;;;;;5081222;28;20250;-75
2022/09/23 07:12:01;;;;;;;2.07;1.87;;;;;;;;;;5115073;28;20213;-75
2022/09/23 07:14:30;;;;;;;1.93;1.77;;;;;;;;;;5096270;28;20711;-75
2022/09/23 07:16:59;;;;;;;3.27;1.83;;;;;;;;;;5096020;28;20205;-75
2022/09/23 07:19:28;;;;;;;2.10;1.90;;;;;;;;;;5095669;28;20202;-76
2022/09/23 07:21:56;;;;;;;4.37;1.80;;;;;;;;;;5083280;28;20283;-75
2022/09/23 07:24:25;;;;;;;2.10;1.37;;;;;;;;;;5096109;28;20257;-75
2022/09/23 07:26:53;;;;;;;2.20;1.70;;;;;;;;;;5095923;28;20197;-75
2022/09/23 07:29:22;;;;;;;1.90;1.70;;;;;;;;;;5094846;28;20263;-75
2022/09/23 07:31:50;;;;;;;1.67;1.50;;;;;;;;;;5095020;28;20233;-75
2022/09/23 07:34:22;;;;;;;1.90;1.70;;;;;;;;;;5095148;28;20247;-76
2022/09/23 07:36:51;;;;;;;1.80;1.70;;;;;;;;;;5074448;28;20634;-75
2022/09/23 07:39:19;;;;;;;1.60;1.50;;;;;;;;;;5080440;28;20203;-75
2022/09/23 07:41:48;;;;;;;3.77;1.80;;;;;;;;;;5075482;28;20253;-75
2022/09/23 07:44:17;;;;;;;3.23;1.80;;;;;;;;;;5094852;28;20691;-75
2022/09/23 07:46:46;;;;;;;2.57;1.70;;;;;;;;;;5095123;28;20639;-75
2022/09/23 07:49:15;;;;;;;3.00;1.90;;;;;;;;;;5095350;28;20238;-75
2022/09/23 07:51:45;;;;;;;2.03;1.60;;;;;;;;;;5095507;28;20251;-75
2022/09/23 07:54:14;;;;;;;3.43;1.77;;;;;;;;;;5095410;28;20209;-75
2022/09/23 07:56:43;;;;;;;2.00;1.63;;;;;;;;;;5095756;28;20201;-75
2022/09/23 07:59:13;;;;;;;2.70;1.80;;;;;;;;;;5095659;28;20201;-75
2022/09/23 08:01:42;;;;;;;4.53;1.80;;;;;;;;;;5095357;28;20293;-75
2022/09/23 08:04:12;;;;;;;1.70;1.60;;;;;;;;;;5095259;28;20263;-76
2022/09/23 08:06:41;;;;;;;2.00;1.80;;;;;;;;;;5081585;28;20198;-75
2022/09/23 08:09:11;;;;;;;2.23;1.70;;;;;;;;;;5074836;28;20633;-75
2022/09/23 08:11:40;;;;;;;2.17;1.70;;;;;;;;;;5074633;28;20222;-75
2022/09/23 08:14:09;;;;;;;2.50;1.90;;;;;;;;;;5093113;28;20210;-75
2022/09/23 08:16:38;;;;;;;1.80;1.70;;;;;;;;;;5089538;28;20230;-75
2022/09/23 08:19:07;;;;;;;2.30;2.10;;;;;;;;;;5094585;28;20232;-75
2022/09/23 08:21:37;;;;;;;2.20;2.00;;;;;;;;;;5076201;28;20313;-75
2022/09/23 08:24:06;;;;;;;3.50;2.00;;;;;;;;;;5074736;28;20661;-75
2022/09/23 08:26:36;;;;;;;1.97;1.80;;;;;;;;;;5084506;28;20308;-75
2022/09/23 08:29:05;;;;;;;3.70;2.00;;;;;;;;;;5094588;28;20292;-75
2022/09/23 08:31:34;;;;;;;2.40;2.00;;;;;;;;;;5094709;28;20194;-75
2022/09/23 08:34:03;;;;;;;2.83;1.90;;;;;;;;;;5093608;28;20285;-75
2022/09/23 08:36:31;;;;;;;2.67;1.80;;;;;;;;;;5103981;28;20727;-75
2022/09/23 08:39:00;;;;;;;2.10;1.90;;;;;;;;;;5114772;28;20205;-75
2022/09/23 08:41:33;;;;;;;2.70;2.00;;;;;;;;;;5114525;28;20236;-76
2022/09/23 08:44:05;;;;;;;2.20;1.80;;;;;;;;;;5082242;28;20202;-75
2022/09/23 08:46:36;;;;;;;2.37;1.70;;;;;;;;;;5083306;28;20298;-75
2022/09/23 08:49:06;;;;;;;2.73;1.70;;;;;;;;;;5093404;28;20198;-74
2022/09/23 08:51:36;;;;;;;2.00;1.90;;;;;;;;;;5074733;28;20234;-75
2022/09/23 08:54:07;;;;;;;1.60;1.47;;;;;;;;;;5073886;28;20224;-75
2022/09/23 08:56:37;;;;;;;3.23;1.93;;;;;;;;;;5083334;28;20714;-75
2022/09/23 08:59:09;;;;;;;2.57;1.67;;;;;;;;;;5073936;28;20643;-75
2022/09/23 09:01:42;;;;;;;2.00;1.67;;;;;;;;;;5073779;28;20221;-76
2022/09/23 09:04:15;;;;;;;2.57;1.73;;;;;;;;;;5074828;28;20206;-76
2022/09/23 09:06:46;;;;;;;3.70;1.87;;;;;;;;;;5088468;28;20301;-75
2022/09/23 09:09:23;;;;;;;3.17;2.00;;;;;;;;;;5093839;28;20190;-76
2022/09/23 09:11:53;;;;;;;2.20;1.60;;;;;;;;;;5093876;28;20190;-75
2022/09/23 09:14:25;;;;;;;4.80;1.93;;;;;;;;;;5083307;28;20201;-75
2022/09/23 09:16:58;;;;;;;2.20;1.90;;;;;;;;;;5093239;28;20242;-75
2022/09/23 09:19:50;;;;;;;3.10;1.90;;;;;;;;;;5093631;28;20205;-75
2022/09/23 09:22:21;;;;;;;2.83;2.00;;;;;;;;;;5085767;28;20253;-75
2022/09/23 09:24:50;;;;;;;1.90;1.60;;;;;;;;;;5093546;28;20673;-76
2022/09/23 09:27:19;;;;;;;2.93;1.77;;;;;;;;;;5093261;28;20284;-76
2022/09/23 09:29:52;;;;;;;2.85;1.90;;;;;;;;;;5091411;28;20206;-75
2022/09/23 09:32:25;;;;;;;2.88;1.70;;;;;;;;;;5093334;28;20304;-75
2022/09/23 09:34:56;;;;;;;2.17;1.98;;;;;;;;;;5092754;28;20225;-77
2022/09/23 09:37:28;;;;;;;1.95;1.75;;;;;;;;;;5093094;28;20243;-75
2022/09/23 09:39:59;;;;;;;2.97;1.85;;;;;;;;;;5093393;28;20734;-75
2022/09/23 09:42:31;;;;;;;3.58;1.98;;;;;;;;;;5082678;28;20281;-75
2022/09/23 09:45:02;;;;;;;4.25;1.88;;;;;;;;;;5073129;28;20651;-75
2022/09/23 09:47:36;;;;;;;6.05;1.80;;;;;;;;;;5081457;28;20247;-76
2022/09/23 09:50:05;;;;;;;3.90;1.80;;;;;;;;;;5088577;28;20293;-75
2022/09/23 09:52:34;;;;;;;3.00;1.67;;;;;;;;;;5093002;28;20221;-75
2022/09/23 09:55:25;;;;;;;2.45;2.10;;;;;;;;;;5092199;28;20233;-75
2022/09/23 09:57:59;;;;;;;3.00;1.83;;;;;;;;;;5092875;28;20252;-75
2022/09/23 10:00:42;;;;;;;3.60;2.28;;;;;;;;;;5094775;28;20712;-76
2022/09/23 10:03:25;;;;;;;2.17;1.98;;;;;;;;;;5083530;28;20229;-75
2022/09/23 10:05:56;;;;;;;2.58;1.85;;;;;;;;;;5096864;28;20303;-75
2022/09/23 10:08:26;;;;;;;3.25;1.77;;;;;;;;;;5097111;28;20236;-76
2022/09/23 10:11:00;;;;;;;2.63;2.03;;;;;;;;;;5096240;28;20256;-76
2022/09/23 10:13:29;;;;;;;2.00;1.80;;;;;;;;;;5096449;28;20658;-75
2022/09/23 10:16:01;;;;;;;2.78;2.05;;;;;;;;;;5096575;28;20194;-75
2022/09/23 10:18:31;;;;;;;2.22;1.85;;;;;;;;;;5094908;28;20626;-75
2022/09/23 10:21:07;;;;;;;1.95;1.77;;;;;;;;;;5095028;28;20922;-75
2022/09/23 10:23:39;;;;;;;2.45;2.03;;;;;;;;;;5075707;28;20221;-75
2022/09/23 10:26:09;;;;;;;2.47;1.95;;;;;;;;;;5074989;28;20754;-75
2022/09/23 10:28:41;;;;;;;2.00;1.70;;;;;;;;;;5109328;28;20334;-75
2022/09/23 10:31:12;;;;;;;2.65;2.15;;;;;;;;;;5107459;28;20205;-75
2022/09/23 10:33:42;;;;;;;2.05;1.70;;;;;;;;;;5096493;28;20593;-75
2022/09/23 10:36:11;;;;;;;3.10;1.90;;;;;;;;;;5092666;28;20399;-75
2022/09/23 10:38:39;;;;;;;3.63;2.00;;;;;;;;;;5096701;28;20240;-75
2022/09/23 10:47:00;;;;;;;4.10;2.30;;;;;;;;;;5090741;28;20683;-75
2022/09/23 10:49:42;;;;;;;3.65;2.10;;;;;;;;;;5096517;28;20236;-75
2022/09/23 10:52:19;;;;;;;1.90;1.80;;;;;;;;;;5096299;28;20233;-75
2022/09/23 10:54:54;;;;;;;3.10;1.92;;;;;;;;;;5096125;28;20280;-76
2022/09/23 10:57:41;;;;;;;2.38;1.90;;;;;;;;;;5095875;28;20237;-75
2022/09/23 11:00:14;;;;;;;4.45;2.15;;;;;;;;;;5094135;28;20232;-75
2022/09/23 11:02:53;;;;;;;4.35;2.00;;;;;;;;;;5085738;28;20222;-75
2022/09/23 11:05:29;;;;;;;2.40;2.20;;;;;;;;;;5075562;28;20206;-75
2022/09/23 11:08:03;;;;;;;2.60;2.20;;;;;;;;;;5084367;28;20300;-75
2022/09/23 11:10:56;;;;;;;2.95;2.30;;;;;;;;;;5088891;28;20667;-75
2022/09/23 11:13:34;;;;;;;3.70;2.05;;;;;;;;;;5087461;28;20272;-75
2022/09/23 11:16:08;;;;;;;3.28;1.90;;;;;;;;;;5093507;28;20229;-75
2022/09/23 11:18:45;;;;;;;3.08;2.38;;;;;;;;;;5094026;28;20240;-75
2022/09/23 11:21:22;;;;;;;2.08;1.83;;;;;;;;;;5095921;28;20613;-76
2022/09/23 11:23:58;;;;;;;3.88;2.40;;;;;;;;;;5095442;28;20311;-75
2022/09/23 11:26:33;;;;;;;3.30;2.10;;;;;;;;;;5095744;28;20241;-76
2022/09/23 11:29:13;;;;;;;2.85;1.77;;;;;;;;;;5095651;28;20239;-75
2022/09/23 11:31:47;;;;;;;3.92;2.28;;;;;;;;;;5074473;28;20251;-75
2022/09/23 11:34:25;;;;;;;2.70;1.88;;;;;;;;;;5092362;28;20205;-75
2022/09/23 11:36:57;;;;;;;4.82;2.47;;;;;;;;;;5095160;28;20239;-75
2022/09/23 11:39:28;;;;;;;3.63;2.00;;;;;;;;;;5094764;28;20198;-75
2022/09/23 11:41:59;;;;;;;2.50;2.28;;;;;;;;;;5091888;28;20304;-74
2022/09/23 11:44:30;;;;;;;2.33;2.00;;;;;;;;;;5080007;28;20578;-75
2022/09/23 11:47:00;;;;;;;2.08;1.90;;;;;;;;;;5092722;28;20312;-75
2022/09/23 11:49:31;;;;;;;2.78;2.00;;;;;;;;;;5089519;28;20629;-75
2022/09/23 11:52:03;;;;;;;2.30;1.80;;;;;;;;;;5094970;28;20257;-75
2022/09/23 11:54:36;;;;;;;4.55;2.20;;;;;;;;;;5094688;28;20225;-75
2022/09/23 11:57:07;;;;;;;2.97;2.10;;;;;;;;;;5093812;28;20233;-76
2022/09/23 11:59:38;;;;;;;2.95;1.80;;;;;;;;;;5103510;28;20613;-75
2022/09/23 12:02:13;;;;;;;3.90;2.20;;;;;;;;;;5094862;28;20257;-75
2022/09/23 12:04:54;;;;;;;3.58;2.05;;;;;;;;;;5079185;28;20194;-76
2022/09/23 12:07:29;;;;;;;3.60;2.10;;;;;;;;;;5089505;28;20693;-76
2022/09/23 12:10:02;;;;;;;2.45;1.83;;;;;;;;;;5091967;28;20197;-76
2022/09/23 12:12:35;;;;;;;3.15;1.88;;;;;;;;;;5087860;28;20218;-75
2022/09/23 12:15:07;;;;;;;2.67;2.10;;;;;;;;;;5088396;28;20250;-75
2022/09/23 12:17:45;;;;;;;5.03;2.20;;;;;;;;;;5091116;28;20236;-75
2022/09/23 12:20:39;;;;;;;3.00;2.15;;;;;;;;;;5093333;28;20704;-75
2022/09/23 12:23:13;;;;;;;2.78;2.20;;;;;;;;;;5092400;28;20579;-74
2022/09/23 12:25:46;;;;;;;3.08;2.10;;;;;;;;;;5086517;28;20203;-75
2022/09/23 12:28:17;;;;;;;2.45;2.15;;;;;;;;;;5096323;28;20316;-75
2022/09/23 12:30:47;;;;;;;2.35;1.88;;;;;;;;;;5091203;28;20626;-76
2022/09/23 12:33:23;;;;;;;2.15;1.90;;;;;;;;;;5104680;28;20221;-76
2022/09/23 12:35:53;;;;;;;2.10;1.90;;;;;;;;;;5091499;28;20575;-76
2022/09/23 12:38:25;;;;;;;2.33;2.13;;;;;;;;;;5086907;28;20224;-75
2022/09/23 12:40:54;;;;;;;3.40;1.98;;;;;;;;;;5082051;28;20285;-76
2022/09/23 12:43:30;;;;;;;2.40;2.00;;;;;;;;;;5087352;28;20708;-75
2022/09/23 12:46:18;;;;;;;2.58;1.90;;;;;;;;;;5097882;28;20240;-75
2022/09/23 12:48:47;;;;;;;2.72;2.20;;;;;;;;;;5085569;28;20619;-75
2022/09/23 12:51:19;;;;;;;2.88;1.92;;;;;;;;;;5073873;28;20300;-76
2022/09/23 12:54:14;;;;;;;1.95;1.70;;;;;;;;;;5087098;28;20220;-76
2022/09/23 12:57:03;;;;;;;2.90;1.60;;;;;;;;;;5082177;28;20214;-75
2022/09/23 12:59:33;;;;;;;2.88;1.73;;;;;;;;;;5083609;28;20259;-75
2022/09/23 13:02:23;;;;;;;2.13;1.73;;;;;;;;;;5089802;28;20251;-74
2022/09/23 13:07:45;;;;;;;1.73;1.60;;;;;;;;;;5080786;28;20206;-75
2022/09/23 13:10:17;;;;;;;1.85;1.70;;;;;;;;;;5075931;28;20222;-75
2022/09/23 13:12:47;;;;;;;1.80;1.60;;;;;;;;;;5088892;28;20222;-76
2022/09/23 13:15:18;;;;;;;3.80;1.88;;;;;;;;;;5084293;28;20217;-76
2022/09/23 13:17:46;;;;;;;3.42;2.15;;;;;;;;;;5087125;28;20718;-75
2022/09/23 13:20:35;;;;;;;4.15;1.70;;;;;;;;;;5076626;28;20229;-76
2022/09/23 13:23:06;;;;;;;2.97;1.77;;;;;;;;;;5089562;28;20222;-75
2022/09/23 13:25:40;;;;;;;7.65;2.00;;;;;;;;;;5093028;28;20190;-75
2022/09/23 13:28:14;;;;;;;2.83;1.95;;;;;;;;;;5083351;28;20296;-74
2022/09/23 13:30:48;;;;;;;2.10;1.90;;;;;;;;;;5101191;28;20197;-75
2022/09/23 13:33:20;;;;;;;2.53;2.10;;;;;;;;;;5092899;28;20585;-75
2022/09/23 13:35:50;;;;;;;3.30;2.53;;;;;;;;;;5088015;28;20269;-75
2022/09/23 13:38:22;;;;;;;3.38;2.63;;;;;;;;;;5090603;28;20285;-74
2022/09/23 13:40:50;;;;;;;3.53;2.10;;;;;;;;;;5092289;28;20236;-75
2022/09/23 13:43:22;;;;;;;3.25;1.90;;;;;;;;;;5090816;28;20243;-76
2022/09/23 13:45:51;;;;;;;4.05;2.60;;;;;;;;;;5092097;28;20237;-75
2022/09/23 13:48:21;;;;;;;2.95;2.50;;;;;;;;;;5092750;28;20257;-75
2022/09/23 13:50:50;;;;;;;3.75;2.30;;;;;;;;;;5092834;28;20202;-75
2022/09/23 13:53:24;;;;;;;2.47;2.28;;;;;;;;;;5089879;28;20221;-78
2022/09/23 13:56:04;;;;;;;3.83;2.15;;;;;;;;;;5077492;28;20265;-74
2022/09/23 13:58:33;;;;;;;3.25;2.10;;;;;;;;;;5090053;28;21677;-75
2022/09/23 14:01:02;;;;;;;2.70;2.10;;;;;;;;;;5088514;28;20233;-75
2022/09/23 14:03:32;;;;;;;4.95;2.08;;;;;;;;;;5087909;28;20228;-75
2022/09/23 14:06:05;;;;;;;2.03;1.90;;;;;;;;;;5090676;28;20251;-75
2022/09/23 14:08:34;;;;;;;2.78;2.28;;;;;;;;;;5091961;28;20727;-74
2022/09/23 14:11:05;;;;;;;2.17;1.98;;;;;;;;;;5087746;28;20369;-75
2022/09/23 14:13:36;;;;;;;3.63;1.80;;;;;;;;;;5081012;28;20253;-75
2022/09/23 14:16:05;;;;;;;2.70;1.88;;;;;;;;;;5092330;28;20233;-75
2022/09/23 14:18:35;;;;;;;3.95;2.00;;;;;;;;;;5085441;28;20662;-74
2022/09/23 14:21:03;;;;;;;5.45;2.40;;;;;;;;;;5091372;28;20236;-76
2022/09/23 14:23:32;;;;;;;2.78;2.00;;;;;;;;;;5085755;28;20625;-75
2022/09/23 14:26:02;;;;;;;2.15;1.77;;;;;;;;;;5092546;28;20619;-75
2022/09/23 14:28:32;;;;;;;2.17;1.63;;;;;;;;;;5089131;28;20620;-75
2022/09/23 14:31:00;;;;;;;2.70;1.63;;;;;;;;;;5089263;28;20273;-76
2022/09/23 14:33:31;;;;;;;2.05;1.77;;;;;;;;;;5091956;28;20702;-75
2022/09/23 14:36:03;;;;;;;3.85;2.10;;;;;;;;;;5093109;28;20245;-75
2022/09/23 14:41:20;;;;;;;3.85;1.60;;;;;;;;;;5081078;28;20348;-75
2022/09/23 14:43:52;;;;;;;1.92;1.55;;;;;;;;;;5085225;28;20641;-75
2022/09/23 14:46:21;;;;;;;2.30;1.58;;;;;;;;;;5093182;28;20642;-75
2022/09/23 14:48:57;;;;;;;4.15;1.60;;;;;;;;;;5096634;28;20632;-75
2022/09/23 14:51:36;;;;;;;1.83;1.52;;;;;;;;;;5094560;28;20277;-75
2022/09/23 14:54:24;;;;;;;2.33;2.03;;;;;;;;;;5087284;28;20258;-75
2022/09/23 14:56:52;;;;;;;3.20;1.73;;;;;;;;;;5093891;28;20567;-75
2022/09/23 14:59:26;;;;;;;4.20;1.75;;;;;;;;;;5094957;28;20197;-75
2022/09/23 15:01:54;;;;;;;3.63;2.20;;;;;;;;;;5076071;28;20675;-76
2022/09/23 15:04:31;;;;;;;4.35;2.70;;;;;;;;;;5075115;28;20279;-75
2022/09/23 15:07:01;;;;;;;3.65;2.67;;;;;;;;;;5098733;28;20224;-75
2022/09/23 15:09:32;;;;;;;2.78;1.90;;;;;;;;;;5090674;28;20259;-75
2022/09/23 15:12:02;;;;;;;4.28;2.00;;;;;;;;;;5075692;28;20243;-76
2022/09/23 15:14:35;;;;;;;4.43;1.98;;;;;;;;;;5083698;28;20616;-76
2022/09/23 15:17:08;;;;;;;2.30;1.80;;;;;;;;;;5090544;28;20201;-75
2022/09/23 15:19:37;;;;;;;2.60;2.10;;;;;;;;;;5093526;28;20244;-75
2022/09/23 15:22:08;;;;;;;2.47;1.83;;;;;;;;;;5088529;28;20254;-76